Time;durP1;ratioP1;P1;durP2;ratioP2;P2;SDS_P1;SDS_P2;PMS_P1;PMS_P2;Temp;Humidity;BMP_temperature;BMP_pressure;BME280_temperature;BME280_humidity;BME280_pressure;Samples;Min_cycle;Max_cycle;Signal;HPM_P1;HPM_P2
2023/09/26 00:00:19;;;;;;;4.35;2.33;;;;;;;16.31;38.70;101809.34;5062915;28;20049;-81
2023/09/26 00:02:47;;;;;;;3.85;2.35;;;;;;;16.26;38.69;101809.78;5046075;28;20063;-82
2023/09/26 00:05:15;;;;;;;3.60;2.20;;;;;;;16.24;38.47;101811.84;5047571;28;20535;-81
2023/09/26 00:07:43;;;;;;;4.30;2.42;;;;;;;16.22;38.52;101805.56;5044607;28;20588;-82
2023/09/26 00:10:12;;;;;;;3.72;2.53;;;;;;;16.23;38.15;101812.84;5045697;28;20044;-81
2023/09/26 00:12:40;;;;;;;4.78;2.50;;;;;;;16.20;38.70;101815.91;5068149;28;20067;-81
2023/09/26 00:15:11;;;;;;;3.15;2.10;;;;;;;16.20;38.49;101818.66;5049524;28;20044;-81
2023/09/26 00:17:41;;;;;;;3.67;2.30;;;;;;;16.19;38.39;101815.03;5049325;28;20048;-81
2023/09/26 00:20:27;;;;;;;3.33;2.00;;;;;;;16.18;38.25;101809.63;5066783;28;20104;-81
2023/09/26 00:22:56;;;;;;;3.65;2.28;;;;;;;16.14;38.31;101813.69;5044060;28;20068;-81
2023/09/26 00:25:25;;;;;;;3.78;2.25;;;;;;;16.14;38.92;101816.47;5043399;28;20203;-82
2023/09/26 00:27:53;;;;;;;4.00;2.58;;;;;;;16.13;38.17;101814.72;5041947;28;20075;-82
2023/09/26 00:30:22;;;;;;;3.53;2.13;;;;;;;16.10;38.45;101812.25;5043793;28;20059;-82
2023/09/26 00:32:52;;;;;;;3.70;2.22;;;;;;;16.10;38.50;101806.72;5062111;28;20083;-81
2023/09/26 00:35:21;;;;;;;3.85;2.13;;;;;;;16.05;38.52;101800.78;5058747;28;20056;-81
2023/09/26 00:37:51;;;;;;;4.50;2.40;;;;;;;16.05;38.93;101809.94;5068921;28;20078;-81
2023/09/26 00:40:21;;;;;;;3.47;2.25;;;;;;;16.06;38.84;101810.81;5086598;28;20048;-81
2023/09/26 00:42:50;;;;;;;4.47;2.40;;;;;;;16.03;38.54;101809.19;5054408;28;20048;-82
2023/09/26 00:45:18;;;;;;;3.97;2.13;;;;;;;16.04;38.98;101813.72;5047214;28;20045;-82
2023/09/26 00:47:47;;;;;;;5.40;2.50;;;;;;;16.03;38.82;101814.72;5049370;28;20076;-82
2023/09/26 00:50:17;;;;;;;3.17;2.05;;;;;;;16.06;38.70;101810.81;5055641;28;20132;-81
2023/09/26 00:52:46;;;;;;;3.60;2.28;;;;;;;16.04;39.06;101810.94;5080530;28;20673;-81
2023/09/26 00:55:17;;;;;;;4.47;2.30;;;;;;;16.06;39.08;101811.69;5080830;28;20098;-81
2023/09/26 00:57:46;;;;;;;4.32;2.40;;;;;;;16.07;38.83;101818.06;5044512;28;20816;-81
2023/09/26 01:00:19;;;;;;;3.30;2.22;;;;;;;16.08;38.72;101815.16;5044080;28;20431;-81
2023/09/26 01:02:47;;;;;;;3.63;2.28;;;;;;;16.06;38.83;101816.31;5044039;28;20094;-82
2023/09/26 01:05:16;;;;;;;3.10;2.13;;;;;;;16.07;38.53;101801.50;5044685;28;20434;-81
2023/09/26 01:07:45;;;;;;;3.58;2.22;;;;;;;16.08;38.98;101806.00;5044003;28;20072;-82
2023/09/26 01:10:13;;;;;;;3.40;2.17;;;;;;;16.07;38.93;101802.38;5044472;28;20052;-81
2023/09/26 01:12:42;;;;;;;3.83;2.03;;;;;;;16.08;38.55;101812.41;5044716;28;20036;-81
2023/09/26 01:15:10;;;;;;;4.00;2.08;;;;;;;16.06;38.87;101802.53;5069513;28;20052;-81
2023/09/26 01:17:39;;;;;;;4.30;2.42;;;;;;;16.05;38.37;101804.41;5064103;28;20053;-82
2023/09/26 01:20:13;;;;;;;4.07;1.92;;;;;;;16.05;38.69;101807.16;5042133;28;20416;-82
2023/09/26 01:22:46;;;;;;;3.80;2.17;;;;;;;16.07;39.03;101793.22;5060868;28;20452;-82
2023/09/26 01:25:19;;;;;;;3.00;2.05;;;;;;;16.04;38.92;101797.13;5046172;28;20106;-82
2023/09/26 01:27:47;;;;;;;3.38;2.10;;;;;;;15.98;38.76;101788.59;5062013;28;20044;-82
2023/09/26 01:30:16;;;;;;;3.97;2.35;;;;;;;15.97;38.90;101793.22;5047867;28;20048;-82
2023/09/26 01:32:46;;;;;;;3.80;2.25;;;;;;;15.95;38.76;101789.75;5071392;28;20299;-83
2023/09/26 01:35:14;;;;;;;4.55;2.42;;;;;;;15.91;39.12;101784.66;5044837;28;20413;-82
2023/09/26 01:37:43;;;;;;;4.88;2.38;;;;;;;15.87;39.17;101781.31;5044646;28;20084;-83
2023/09/26 01:40:12;;;;;;;3.92;2.30;;;;;;;15.86;39.33;101787.84;5062143;28;20265;-82
2023/09/26 01:42:42;;;;;;;3.95;2.20;;;;;;;15.84;39.29;101776.94;5045600;28;20063;-82
2023/09/26 01:45:10;;;;;;;2.85;2.05;;;;;;;15.80;39.25;101774.66;5044670;28;20053;-82
2023/09/26 01:47:45;;;;;;;3.38;2.30;;;;;;;15.80;39.49;101775.53;5049329;28;20058;-82
2023/09/26 01:50:15;;;;;;;3.92;2.08;;;;;;;15.74;39.24;101772.47;5075808;28;20227;-82
2023/09/26 01:52:44;;;;;;;3.90;2.20;;;;;;;15.72;39.34;101775.38;5048077;28;20059;-82
2023/09/26 01:55:14;;;;;;;3.40;2.03;;;;;;;15.72;39.24;101771.75;5051606;28;20056;-82
2023/09/26 01:57:43;;;;;;;4.15;2.28;;;;;;;15.71;39.02;101770.00;5063644;28;20536;-83
2023/09/26 02:00:13;;;;;;;4.22;2.33;;;;;;;15.67;39.22;101769.41;5065529;28;20166;-83
2023/09/26 02:02:42;;;;;;;3.58;2.20;;;;;;;15.67;39.04;101771.31;5048331;28;20759;-82
2023/09/26 02:05:12;;;;;;;4.20;2.50;;;;;;;15.65;39.56;101771.47;5047942;28;20109;-82
2023/09/26 02:07:40;;;;;;;3.83;2.55;;;;;;;15.64;39.43;101768.84;5065537;28;20074;-82
2023/09/26 02:10:09;;;;;;;3.83;2.47;;;;;;;15.65;39.37;101767.84;5066929;28;20080;-82
2023/09/26 02:12:39;;;;;;;3.88;2.40;;;;;;;15.64;39.22;101766.09;5051478;28;20056;-82
2023/09/26 02:15:11;;;;;;;3.78;2.55;;;;;;;15.65;39.17;101771.47;5044410;28;20052;-83
2023/09/26 02:17:40;;;;;;;4.68;2.25;;;;;;;15.61;39.13;101771.88;5062325;28;20052;-82
2023/09/26 02:20:12;;;;;;;3.15;1.85;;;;;;;15.64;39.41;101774.38;5057779;28;20339;-82
2023/09/26 02:22:41;;;;;;;;;;;;;;;15.35;39.68;101763.28;5065988;28;20083;-82
2023/09/26 02:25:10;;;;;;;3.53;2.10;;;;;;;15.58;39.36;101764.78;5082078;28;19916;-82
2023/09/26 02:27:38;;;;;;;3.80;2.20;;;;;;;15.62;39.26;101766.22;5077629;28;20051;-82
2023/09/26 02:30:09;;;;;;;4.40;2.35;;;;;;;15.63;39.35;101761.56;5043488;28;21288;-82
2023/09/26 02:32:37;;;;;;;4.50;2.60;;;;;;;15.61;39.41;101758.97;5059371;28;20225;-83
2023/09/26 02:35:08;;;;;;;4.05;2.40;;;;;;;15.63;39.37;101765.22;5042094;28;20048;-82
2023/09/26 02:37:36;;;;;;;3.20;2.08;;;;;;;15.61;39.00;101756.19;5042459;28;20048;-82
2023/09/26 02:40:07;;;;;;;3.97;2.10;;;;;;;15.62;39.31;101759.84;5042800;28;20066;-83
2023/09/26 02:42:35;;;;;;;4.03;2.40;;;;;;;15.60;39.06;101761.84;5062971;28;20130;-82
2023/09/26 02:45:03;;;;;;;4.45;2.80;;;;;;;15.61;38.95;101755.31;5041631;28;20098;-82
2023/09/26 02:47:32;;;;;;;3.95;2.33;;;;;;;15.60;39.29;101754.44;5058480;28;20135;-82
2023/09/26 02:50:00;;;;;;;4.47;2.30;;;;;;;15.58;39.06;101753.75;5043191;28;20063;-82
2023/09/26 02:52:30;;;;;;;4.18;2.28;;;;;;;15.58;39.11;101759.28;5040674;28;20044;-82
2023/09/26 02:54:58;;;;;;;4.07;2.28;;;;;;;15.56;39.29;101744.75;5042557;28;20059;-82
2023/09/26 02:57:26;;;;;;;3.92;2.80;;;;;;;15.56;38.85;101746.63;5043653;28;20058;-82
2023/09/26 02:59:54;;;;;;;3.78;2.40;;;;;;;15.54;39.29;101743.13;5057741;28;20051;-82
2023/09/26 03:02:22;;;;;;;3.75;2.33;;;;;;;15.54;39.47;101748.66;5044562;28;20762;-82
2023/09/26 03:04:51;;;;;;;4.00;2.40;;;;;;;15.55;38.97;101750.41;5043015;28;20059;-82
2023/09/26 03:07:19;;;;;;;4.35;2.60;;;;;;;15.50;38.97;101748.09;5043810;28;20057;-83
2023/09/26 03:09:47;;;;;;;3.75;2.58;;;;;;;15.49;39.19;101746.34;5041559;28;20048;-82
2023/09/26 03:12:15;;;;;;;3.40;2.40;;;;;;;15.47;39.48;101748.38;5041685;28;20583;-82
2023/09/26 03:14:43;;;;;;;3.38;2.50;;;;;;;15.45;39.17;101745.75;5069667;28;20048;-82
2023/09/26 03:17:11;;;;;;;3.88;2.40;;;;;;;15.42;39.44;101740.50;5061784;28;20049;-83
2023/09/26 03:19:40;;;;;;;3.78;2.38;;;;;;;15.41;39.32;101746.19;5041822;28;20401;-82
2023/09/26 03:22:09;;;;;;;4.57;2.50;;;;;;;15.40;38.97;101747.22;5042115;28;20053;-82
2023/09/26 03:24:37;;;;;;;4.32;2.80;;;;;;;15.36;39.54;101746.59;5058784;28;20067;-83
2023/09/26 03:27:05;;;;;;;4.95;2.28;;;;;;;15.36;39.11;101751.25;5041489;28;20053;-82
2023/09/26 03:29:33;;;;;;;5.30;2.50;;;;;;;15.33;39.46;101748.78;5059314;28;20782;-82
2023/09/26 03:32:03;;;;;;;3.72;2.30;;;;;;;15.30;39.67;101741.66;5058938;28;20171;-82
2023/09/26 03:34:31;;;;;;;3.85;2.30;;;;;;;15.28;39.46;101735.41;5043343;28;20044;-82
2023/09/26 03:36:59;;;;;;;3.67;2.47;;;;;;;15.26;39.52;101731.06;5043438;28;20059;-81
2023/09/26 03:39:29;;;;;;;4.00;2.70;;;;;;;15.26;39.20;101733.81;5044988;28;20049;-82
2023/09/26 03:41:56;;;;;;;4.55;2.70;;;;;;;15.22;39.52;101732.34;5053139;28;20045;-82
2023/09/26 03:44:24;;;;;;;3.75;2.38;;;;;;;15.18;39.37;101723.47;5041968;28;20064;-82
2023/09/26 03:46:52;;;;;;;5.40;2.50;;;;;;;15.12;39.77;101727.69;5042605;28;20748;-82
2023/09/26 03:49:20;;;;;;;4.90;2.50;;;;;;;15.08;39.76;101720.72;5051693;28;20504;-82
2023/09/26 03:51:49;;;;;;;3.78;2.30;;;;;;;15.05;39.44;101721.00;5062433;28;20059;-82
2023/09/26 03:54:17;;;;;;;4.40;2.78;;;;;;;15.02;39.66;101725.91;5061555;28;20045;-82
2023/09/26 03:56:46;;;;;;;3.97;2.35;;;;;;;15.01;39.57;101727.81;5062935;28;20726;-82
2023/09/26 03:59:15;;;;;;;5.15;2.70;;;;;;;14.96;39.82;101724.63;5077716;28;20148;-82
2023/09/26 04:01:46;;;;;;;4.55;2.42;;;;;;;14.94;40.05;101729.38;5051730;28;20045;-82
2023/09/26 04:04:15;;;;;;;4.97;2.70;;;;;;;14.91;40.10;101731.56;5070324;28;20066;-82
2023/09/26 04:06:43;;;;;;;4.35;2.63;;;;;;;14.91;40.01;101732.44;5077333;28;20048;-82
2023/09/26 04:09:11;;;;;;;4.72;2.65;;;;;;;14.89;39.87;101733.59;5064035;28;20064;-81
2023/09/26 04:11:39;;;;;;;4.18;2.47;;;;;;;14.87;40.07;101732.84;5087273;28;20091;-82
2023/09/26 04:14:09;;;;;;;4.10;2.67;;;;;;;14.86;40.18;101734.75;5053061;28;20047;-82
2023/09/26 04:16:38;;;;;;;4.30;2.90;;;;;;;14.85;39.93;101735.75;5046861;28;20420;-81
2023/09/26 04:19:08;;;;;;;4.53;2.83;;;;;;;14.81;39.86;101734.31;5045481;28;20658;-81
2023/09/26 04:21:37;;;;;;;3.88;2.60;;;;;;;14.76;39.79;101737.47;5044704;28;20476;-82
2023/09/26 04:24:05;;;;;;;3.97;2.55;;;;;;;14.75;40.44;101735.75;5043631;28;20157;-82
2023/09/26 04:26:33;;;;;;;4.57;2.63;;;;;;;14.73;40.43;101731.38;5044179;28;20060;-82
2023/09/26 04:29:01;;;;;;;4.60;2.78;;;;;;;14.71;40.55;101730.63;5060749;28;20044;-81
2023/09/26 04:31:31;;;;;;;4.40;2.72;;;;;;;14.72;40.43;101741.53;5062613;28;20067;-81
2023/09/26 04:33:59;;;;;;;4.75;2.80;;;;;;;14.69;40.15;101733.53;5043028;28;20050;-82
2023/09/26 04:36:27;;;;;;;4.15;2.70;;;;;;;14.69;40.37;101728.00;5063108;28;20087;-82
2023/09/26 04:38:54;;;;;;;4.22;2.50;;;;;;;14.68;40.57;101720.75;5043320;28;20044;-82
2023/09/26 04:41:22;;;;;;;4.60;2.88;;;;;;;14.69;40.45;101722.50;5044842;28;20041;-82
2023/09/26 04:43:50;;;;;;;3.83;2.70;;;;;;;14.69;40.08;101710.63;5058740;28;20072;-82
2023/09/26 04:46:18;;;;;;;4.07;2.72;;;;;;;14.69;40.02;101710.63;5045616;28;20052;-81
2023/09/26 04:48:48;;;;;;;4.60;2.90;;;;;;;14.72;40.59;101710.34;5042326;28;20121;-82
2023/09/26 04:51:20;;;;;;;4.28;2.70;;;;;;;14.70;40.40;101706.84;5044534;28;20149;-82
2023/09/26 04:53:48;;;;;;;4.32;2.83;;;;;;;14.67;40.63;101704.41;5059751;28;20093;-83
2023/09/26 04:56:16;;;;;;;4.75;2.95;;;;;;;14.65;40.30;101706.41;5072477;28;20472;-82
2023/09/26 04:58:44;;;;;;;4.00;2.63;;;;;;;14.64;40.32;101707.41;5039025;28;20055;-81
2023/09/26 05:01:13;;;;;;;4.38;2.72;;;;;;;14.64;40.13;101712.94;5042285;28;20043;-82
2023/09/26 05:03:42;;;;;;;4.25;3.08;;;;;;;14.60;40.35;101705.97;5041909;28;20447;-82
2023/09/26 05:06:12;;;;;;;4.63;2.75;;;;;;;14.59;40.25;101710.59;5039569;28;20053;-81
2023/09/26 05:08:42;;;;;;;4.50;2.80;;;;;;;14.56;40.62;101710.88;5039306;28;20053;-81
2023/09/26 05:11:14;;;;;;;4.15;2.80;;;;;;;14.58;40.95;101708.88;5042416;28;20090;-82
2023/09/26 05:13:44;;;;;;;4.22;2.92;;;;;;;14.52;40.32;101708.56;5043321;28;20063;-82
2023/09/26 05:16:14;;;;;;;4.20;2.20;;;;;;;14.54;40.27;101715.66;5052279;28;20052;-83
2023/09/26 05:18:42;;;;;;;3.53;2.40;;;;;;;14.51;40.16;101713.19;5043512;28;20593;-82
2023/09/26 05:21:12;;;;;;;4.45;2.53;;;;;;;14.54;40.79;101721.16;5044190;28;20076;-82
2023/09/26 05:23:40;;;;;;;4.68;2.35;;;;;;;14.54;40.73;101712.03;5063023;28;20104;-82
2023/09/26 05:26:10;;;;;;;3.92;2.60;;;;;;;14.55;40.27;101713.75;5047773;28;20155;-82
2023/09/26 05:28:38;;;;;;;4.15;2.42;;;;;;;14.56;40.60;101721.91;5046455;28;20044;-82
2023/09/26 05:31:08;;;;;;;3.83;2.47;;;;;;;14.57;40.36;101731.03;5047248;28;20557;-82
2023/09/26 05:33:36;;;;;;;3.85;2.42;;;;;;;14.56;40.52;101721.91;5049293;28;20059;-82
2023/09/26 05:36:04;;;;;;;4.20;2.50;;;;;;;14.57;40.62;101728.28;5067080;28;20071;-82
2023/09/26 05:38:34;;;;;;;4.93;2.63;;;;;;;14.59;40.28;101731.78;5064821;28;20052;-82
2023/09/26 05:41:02;;;;;;;4.25;2.85;;;;;;;14.58;40.30;101721.75;5047519;28;20077;-83
2023/09/26 05:43:30;;;;;;;4.50;2.90;;;;;;;14.56;40.66;101718.28;5047852;28;20052;-82
2023/09/26 05:45:59;;;;;;;4.80;2.80;;;;;;;14.58;40.32;101719.00;5080414;28;20080;-82
2023/09/26 05:48:28;;;;;;;4.85;2.63;;;;;;;14.56;40.82;101721.91;5050990;28;20060;-83
2023/09/26 05:50:59;;;;;;;3.92;2.70;;;;;;;14.59;40.48;101732.66;5057073;28;20067;-82
2023/09/26 05:53:27;;;;;;;3.80;2.50;;;;;;;14.56;40.49;101726.53;5078911;28;20067;-83
2023/09/26 05:55:57;;;;;;;3.95;2.60;;;;;;;14.57;40.50;101723.63;5060912;28;20104;-82
2023/09/26 05:58:25;;;;;;;4.00;2.80;;;;;;;14.55;40.54;101722.91;5051207;28;20072;-83
2023/09/26 06:00:56;;;;;;;7.40;2.90;;;;;;;14.56;40.63;101726.53;5051980;28;20048;-84
2023/09/26 06:03:24;;;;;;;5.55;3.33;;;;;;;14.55;40.41;101722.03;5070306;28;20052;-83
2023/09/26 06:05:53;;;;;;;5.68;3.10;;;;;;;14.54;40.66;101731.28;5048993;28;20067;-83
2023/09/26 06:08:21;;;;;;;3.47;2.45;;;;;;;14.53;40.86;101724.91;5074487;28;20051;-85
2023/09/26 06:10:53;;;;;;;5.80;3.20;;;;;;;14.54;41.33;101720.28;5051403;28;20060;-86
2023/09/26 06:13:23;;;;;;;6.40;3.33;;;;;;;14.52;41.01;101719.56;5082744;28;20053;-86
2023/09/26 06:15:51;;;;;;;5.10;3.17;;;;;;;14.50;40.92;101714.19;5068160;28;20131;-81
2023/09/26 06:18:19;;;;;;;5.35;3.30;;;;;;;14.49;40.94;101715.19;5048223;28;20048;-82
2023/09/26 06:20:47;;;;;;;5.70;3.30;;;;;;;14.49;41.23;101717.97;5052494;28;20045;-81
2023/09/26 06:23:15;;;;;;;4.93;3.13;;;;;;;14.47;41.19;101711.72;5052631;28;20064;-83
2023/09/26 06:25:43;;;;;;;5.35;3.10;;;;;;;14.47;41.49;101714.47;5053340;28;20084;-83
2023/09/26 06:28:25;;;;;;;4.72;3.20;;;;;;;14.46;41.50;101707.16;5081930;28;20052;-82
2023/09/26 06:30:53;;;;;;;5.72;3.75;;;;;;;14.43;41.42;101704.72;5051958;28;20123;-83
2023/09/26 06:33:21;;;;;;;5.07;3.67;;;;;;;14.41;41.48;101709.50;5052029;28;20090;-83
2023/09/26 06:35:49;;;;;;;5.88;3.60;;;;;;;14.42;41.58;101699.34;5054904;28;20049;-83
2023/09/26 06:38:17;;;;;;;5.50;3.88;;;;;;;14.43;41.90;101706.59;5055748;28;20044;-83
2023/09/26 06:40:45;;;;;;;6.60;3.83;;;;;;;14.44;42.23;101705.56;5073299;28;20040;-83
2023/09/26 06:43:13;;;;;;;6.50;4.00;;;;;;;14.48;42.48;101707.94;5066554;28;20055;-84
2023/09/26 06:45:42;;;;;;;5.80;3.45;;;;;;;14.57;43.17;101717.25;5046921;28;20071;-83
2023/09/26 06:48:11;;;;;;;6.25;3.72;;;;;;;14.65;43.48;101712.78;5049408;28;20784;-83
2023/09/26 06:50:43;;;;;;;5.82;3.42;;;;;;;14.83;43.60;101706.59;5068424;28;20066;-83
2023/09/26 06:53:11;;;;;;;5.72;3.70;;;;;;;14.94;43.69;101710.09;5052485;28;20055;-83
2023/09/26 06:55:40;;;;;;;4.90;3.17;;;;;;;15.13;43.47;101709.25;5049947;28;20480;-83
2023/09/26 06:58:08;;;;;;;5.47;3.58;;;;;;;15.30;43.01;101711.31;5045743;28;20425;-83
2023/09/26 07:00:37;;;;;;;4.22;2.95;;;;;;;15.47;42.98;101709.75;5052193;28;20120;-83
2023/09/26 07:03:08;;;;;;;5.20;3.13;;;;;;;15.68;43.21;101702.16;5068109;28;20575;-82
2023/09/26 07:05:36;;;;;;;4.40;3.00;;;;;;;15.86;42.82;101703.16;5051017;28;20057;-82
2023/09/26 07:08:06;;;;;;;5.15;3.30;;;;;;;16.05;43.04;101701.38;5049370;28;20441;-82
2023/09/26 07:10:38;;;;;;;7.15;3.53;;;;;;;16.29;42.37;101700.88;5051321;28;20056;-82
2023/09/26 07:13:06;;;;;;;6.05;3.45;;;;;;;16.46;42.22;101702.84;5049964;28;20052;-81
2023/09/26 07:15:58;;;;;;;4.87;3.20;;;;;;;16.70;41.54;101713.34;5047474;28;20074;-82
2023/09/26 07:18:28;;;;;;;6.57;3.40;;;;;;;16.91;41.86;101711.16;5076689;28;20528;-78
2023/09/26 07:20:56;;;;;;;5.07;3.20;;;;;;;17.09;41.47;101714.88;5043313;28;20048;-77
2023/09/26 07:23:23;;;;;;;5.40;3.58;;;;;;;17.26;41.05;101710.38;5064386;28;20783;-77
2023/09/26 07:25:51;;;;;;;5.10;3.40;;;;;;;17.40;40.22;101710.69;5066005;28;20058;-78
2023/09/26 07:28:19;;;;;;;4.40;2.90;;;;;;;17.51;39.73;101712.34;5046663;28;20059;-77
2023/09/26 07:30:48;;;;;;;4.65;3.10;;;;;;;17.61;39.65;101712.28;5064851;28;20752;-77
2023/09/26 07:33:16;;;;;;;4.20;3.10;;;;;;;17.68;39.12;101717.00;5078021;28;20040;-77
2023/09/26 07:35:51;;;;;;;4.72;2.78;;;;;;;17.76;38.91;101705.16;5083779;28;20052;-77
2023/09/26 07:38:19;;;;;;;4.32;2.90;;;;;;;17.79;38.75;101704.84;5082533;28;20050;-77
2023/09/26 07:40:47;;;;;;;4.53;2.80;;;;;;;17.82;38.98;101704.50;5049165;28;20493;-77
2023/09/26 07:43:15;;;;;;;4.60;3.03;;;;;;;17.83;38.38;101700.72;5062510;28;20048;-77
2023/09/26 07:45:43;;;;;;;4.45;2.67;;;;;;;17.83;38.36;101709.00;5064088;28;20697;-77
2023/09/26 07:48:11;;;;;;;4.10;2.63;;;;;;;17.85;38.35;101715.28;5044265;28;20383;-77
2023/09/26 07:50:39;;;;;;;4.30;2.70;;;;;;;17.84;38.18;101719.06;5043533;28;20052;-81
2023/09/26 07:53:09;;;;;;;4.50;2.70;;;;;;;17.87;38.40;101718.75;5059962;28;20310;-81
2023/09/26 07:55:37;;;;;;;4.25;2.70;;;;;;;17.85;38.37;101714.41;5061750;28;20080;-81
2023/09/26 07:58:05;;;;;;;4.25;3.20;;;;;;;17.88;38.25;101705.78;5041232;28;20049;-80
2023/09/26 08:00:33;;;;;;;3.90;2.63;;;;;;;17.92;38.49;101710.81;5057924;28;20055;-81
2023/09/26 08:03:01;;;;;;;3.90;2.80;;;;;;;17.96;38.37;101701.16;5062920;28;20728;-80
2023/09/26 08:05:29;;;;;;;3.40;2.35;;;;;;;18.00;38.30;101705.34;5043159;28;20051;-81
2023/09/26 08:07:58;;;;;;;3.67;2.55;;;;;;;18.06;38.16;101704.69;5041413;28;20062;-80
2023/09/26 08:10:28;;;;;;;4.00;2.42;;;;;;;18.12;37.99;101703.19;5062631;28;20049;-81
2023/09/26 08:12:56;;;;;;;4.22;2.45;;;;;;;18.14;37.78;101701.97;5042255;28;20155;-81
2023/09/26 08:15:25;;;;;;;3.72;2.25;;;;;;;18.20;37.50;101696.81;5041647;28;20049;-81
2023/09/26 08:17:53;;;;;;;5.07;2.78;;;;;;;18.21;37.89;101699.44;5060089;28;20440;-80
2023/09/26 08:20:21;;;;;;;3.42;2.20;;;;;;;18.24;37.42;101696.31;5051081;28;20577;-79
2023/09/26 08:22:49;;;;;;;3.85;2.42;;;;;;;18.27;37.82;101689.56;5040320;28;20060;-80
2023/09/26 08:25:17;;;;;;;3.47;2.25;;;;;;;18.30;37.85;101706.75;5062090;28;20708;-80
2023/09/26 08:27:46;;;;;;;3.70;2.33;;;;;;;18.35;37.23;101693.25;5040631;28;20646;-80
2023/09/26 08:30:14;;;;;;;5.30;2.30;;;;;;;18.35;37.45;101692.38;5067650;28;20544;-80
2023/09/26 08:32:43;;;;;;;3.42;2.13;;;;;;;18.38;37.50;101694.84;5061451;28;20048;-81
2023/09/26 08:35:11;;;;;;;6.10;2.65;;;;;;;18.40;37.49;101695.53;5062013;28;20049;-80
2023/09/26 08:37:40;;;;;;;4.15;2.45;;;;;;;18.42;37.19;101697.09;5061812;28;20049;-81
2023/09/26 08:40:10;;;;;;;4.25;2.10;;;;;;;18.46;37.29;101703.19;5068515;28;20044;-81
2023/09/26 08:42:41;;;;;;;3.65;2.38;;;;;;;18.49;37.25;101698.22;5044017;28;20060;-81
2023/09/26 08:45:12;;;;;;;4.78;2.28;;;;;;;18.53;37.29;101701.53;5064347;28;20138;-81
2023/09/26 08:47:44;;;;;;;3.30;2.15;;;;;;;18.57;37.07;101690.97;5063896;28;20063;-81
2023/09/26 08:50:12;;;;;;;3.33;2.10;;;;;;;18.56;37.68;101694.75;5043299;28;20469;-81
2023/09/26 08:52:40;;;;;;;3.42;2.20;;;;;;;18.61;37.17;101693.25;5043902;28;20051;-79
2023/09/26 08:55:09;;;;;;;4.20;2.38;;;;;;;18.67;37.08;101700.03;5075275;28;20036;-81
2023/09/26 08:57:38;;;;;;;3.78;2.28;;;;;;;18.71;37.40;101701.44;5052263;28;20041;-80
2023/09/26 09:00:09;;;;;;;4.43;2.20;;;;;;;18.75;37.04;101689.81;5047192;28;20550;-81
2023/09/26 09:02:38;;;;;;;4.00;2.42;;;;;;;18.79;37.24;101684.84;5045897;28;20106;-81
2023/09/26 09:05:09;;;;;;;4.60;2.70;;;;;;;18.82;37.15;101687.25;5046873;28;20052;-81
2023/09/26 09:07:38;;;;;;;3.60;2.05;;;;;;;18.84;36.77;101686.03;5052657;28;20163;-81
2023/09/26 09:10:10;;;;;;;3.35;2.05;;;;;;;18.86;37.21;101678.44;5063183;28;20845;-81
2023/09/26 09:12:40;;;;;;;5.05;2.13;;;;;;;18.89;36.86;101672.53;5063313;28;20048;-81
2023/09/26 09:15:23;;;;;;;5.75;2.38;;;;;;;18.96;36.67;101680.19;5051186;28;20068;-81
2023/09/26 09:17:53;;;;;;;3.72;2.30;;;;;;;19.01;36.78;101669.44;5052784;28;20049;-80
2023/09/26 09:20:32;;;;;;;3.20;1.88;;;;;;;19.06;36.31;101676.22;5056848;28;20267;-82
2023/09/26 09:23:02;;;;;;;4.55;2.20;;;;;;;19.09;36.43;101669.47;5075030;28;20057;-81
2023/09/26 09:25:31;;;;;;;4.50;2.10;;;;;;;19.10;36.73;101660.97;5054075;28;20040;-81
2023/09/26 09:28:00;;;;;;;4.53;2.55;;;;;;;19.17;36.74;101655.59;5047537;28;20045;-80
2023/09/26 09:30:29;;;;;;;3.63;2.40;;;;;;;19.21;36.38;101654.28;5066939;28;20712;-81
2023/09/26 09:32:59;;;;;;;3.40;2.15;;;;;;;19.28;36.78;101655.31;5042864;28;20074;-80
2023/09/26 09:35:27;;;;;;;2.95;2.00;;;;;;;19.30;36.77;101644.88;5048864;28;20053;-81
2023/09/26 09:37:58;;;;;;;4.28;1.80;;;;;;;19.36;36.54;101643.34;5048233;28;20419;-80
2023/09/26 09:40:26;;;;;;;4.47;2.42;;;;;;;19.42;36.61;101640.72;5063053;28;20052;-81
2023/09/26 09:42:55;;;;;;;3.50;2.00;;;;;;;19.48;36.26;101639.16;5062681;28;20052;-82
2023/09/26 09:45:26;;;;;;;3.75;2.22;;;;;;;19.55;36.37;101643.84;5048515;28;20052;-84
2023/09/26 09:47:57;;;;;;;4.15;2.40;;;;;;;19.65;36.11;101635.34;5046421;28;20048;-84
2023/09/26 09:50:29;;;;;;;3.60;2.25;;;;;;;19.73;35.87;101634.44;5046648;28;20052;-83
2023/09/26 09:53:01;;;;;;;3.42;2.00;;;;;;;19.82;35.59;101641.72;5046050;28;20052;-83
2023/09/26 09:55:36;;;;;;;3.45;1.90;;;;;;;19.88;35.93;101638.25;5046590;28;20106;-82
2023/09/26 09:58:08;;;;;;;3.63;2.28;;;;;;;19.95;35.47;101633.78;5063964;28;20044;-83
2023/09/26 10:00:37;;;;;;;3.25;1.95;;;;;;;20.00;35.93;101629.41;5045957;28;20258;-82
2023/09/26 10:03:06;;;;;;;3.75;2.00;;;;;;;20.09;35.57;101627.47;5045710;28;20059;-81
2023/09/26 10:05:35;;;;;;;4.40;1.92;;;;;;;20.18;35.06;101631.09;5066298;28;20071;-82
2023/09/26 10:08:06;;;;;;;3.63;1.85;;;;;;;20.24;35.42;101635.94;5044348;28;20579;-83
2023/09/26 10:10:35;;;;;;;3.92;1.95;;;;;;;20.30;35.23;101627.72;5062765;28;20052;-83
2023/09/26 10:13:04;;;;;;;3.35;1.90;;;;;;;20.38;34.91;101629.59;5045791;28;20044;-82
2023/09/26 10:16:05;;;;;;;2.90;1.80;;;;;;;20.48;34.47;101624.69;5063041;28;20127;-82
2023/09/26 10:18:37;;;;;;;3.75;1.70;;;;;;;20.55;35.07;101624.84;5063903;28;20045;-82
2023/09/26 10:21:23;;;;;;;3.30;1.70;;;;;;;20.64;34.74;101621.00;5044098;28;20389;-82
2023/09/26 10:24:22;;;;;;;2.15;1.60;;;;;;;20.73;35.15;101620.78;5052294;28;20044;-81
2023/09/26 10:26:52;;;;;;;3.38;1.75;;;;;;;20.82;35.03;101618.81;5045679;28;20159;-82
2023/09/26 10:29:23;;;;;;;3.38;1.90;;;;;;;20.94;34.03;101628.50;5044958;28;20415;-82
2023/09/26 10:31:54;;;;;;;3.53;2.05;;;;;;;21.02;34.82;101617.31;5064801;28;20408;-81
2023/09/26 10:34:28;;;;;;;3.38;1.90;;;;;;;21.17;34.04;101616.50;5070683;28;20129;-81
2023/09/26 10:37:20;;;;;;;3.40;1.80;;;;;;;21.25;34.41;101610.88;5046298;28;20467;-83
2023/09/26 10:39:49;;;;;;;2.95;1.90;;;;;;;21.33;34.53;101610.81;5044511;28;20420;-82
2023/09/26 10:42:19;;;;;;;3.85;1.85;;;;;;;21.42;33.92;101609.72;5061355;28;20143;-82
2023/09/26 10:45:10;;;;;;;2.90;1.70;;;;;;;21.49;33.95;101607.91;5044041;28;20109;-81
2023/09/26 10:47:40;;;;;;;2.58;1.58;;;;;;;21.55;33.84;101603.47;5044034;28;20771;-82
2023/09/26 10:50:12;;;;;;;2.72;1.52;;;;;;;21.60;33.63;101604.66;5064071;28;20049;-82
2023/09/26 10:52:46;;;;;;;3.00;1.67;;;;;;;21.65;33.13;101604.09;5060894;28;20153;-83
2023/09/26 10:55:16;;;;;;;3.40;2.05;;;;;;;21.70;33.35;101602.44;5045450;28;20048;-82
2023/09/26 10:57:47;;;;;;;2.90;1.80;;;;;;;21.74;33.41;101591.81;5064128;28;20444;-82
2023/09/26 11:00:15;;;;;;;2.40;1.50;;;;;;;21.79;33.60;101595.75;5046767;28;20049;-81
2023/09/26 11:02:47;;;;;;;3.20;1.90;;;;;;;21.86;33.37;101596.72;5077728;28;20205;-83
2023/09/26 11:05:16;;;;;;;3.55;1.52;;;;;;;21.91;32.81;101598.09;5083896;28;20040;-83
2023/09/26 11:08:06;;;;;;;2.30;1.42;;;;;;;21.98;32.80;101599.06;5082822;28;20366;-83
2023/09/26 11:10:54;;;;;;;3.13;1.67;;;;;;;22.01;32.67;101598.69;5045025;28;20064;-83
2023/09/26 11:13:24;;;;;;;3.58;1.60;;;;;;;22.10;32.26;101597.50;5045253;28;20441;-83
2023/09/26 11:15:52;;;;;;;2.90;1.50;;;;;;;22.12;32.15;101604.63;5047464;28;20056;-82
2023/09/26 11:18:20;;;;;;;3.13;1.67;;;;;;;22.20;32.28;101609.25;5075408;28;20104;-81
2023/09/26 11:20:49;;;;;;;2.45;1.50;;;;;;;22.27;32.28;101611.06;5046696;28;20071;-82
2023/09/26 11:23:36;;;;;;;2.67;1.58;;;;;;;22.36;31.58;101605.38;5049507;28;20045;-84
2023/09/26 11:26:07;;;;;;;2.75;1.50;;;;;;;22.41;31.94;101587.03;5070190;28;20047;-82
2023/09/26 11:28:35;;;;;;;4.57;1.80;;;;;;;22.45;31.82;101591.13;5068904;28;20071;-82
2023/09/26 11:31:04;;;;;;;2.47;1.48;;;;;;;22.52;31.99;101588.44;5047179;28;20109;-82
2023/09/26 11:33:32;;;;;;;4.00;1.65;;;;;;;22.59;31.96;101589.44;5044755;28;20289;-82
2023/09/26 11:36:00;;;;;;;2.95;1.60;;;;;;;22.64;31.63;101576.63;5069074;28;20060;-83